Terminal Aerodrome Forecast
Issued by NWS

Home | Current Version | Previous Version | Text Only | Print | Product List | Glossary On
Versions: 1 2 3 4 5 6 7 8 9 10 11 12
000
FTUS46 KPDT 271100
TAFPSC
TAF
KPSC 271136Z 2712/2812 VRB04KT P6SM SKC
     FM272100 23005KT P6SM FEW200
     FM280000 25010KT P6SM SCT100 BKN150
     FM280300 22015G25KT P6SM VCSH SCT060 BKN080
     FM280600 22015G25KT P6SM -SHRA BKN060 OVC080=

USA.gov is the U.S. government's official web portal to all federal, state and local government web resources and services.